Time;durP1;ratioP1;P1;durP2;ratioP2;P2;SDS_P1;SDS_P2;PMS_P1;PMS_P2;Temp;Humidity;BMP_temperature;BMP_pressure;BME280_temperature;BME280_humidity;BME280_pressure;Samples;Min_cycle;Max_cycle;Signal;HPM_P1;HPM_P2
2022/08/14 00:01:48;;;;;;;24.80;17.53;;;18.00;99.90;;;;;;4368180;28;660805;-66
2022/08/14 00:04:36;;;;;;;23.57;17.73;;;18.10;99.90;;;;;;4335593;28;659802;-69
2022/08/14 00:07:24;;;;;;;27.23;18.30;;;18.10;99.90;;;;;;4355658;28;660822;-68
2022/08/14 00:10:14;;;;;;;28.85;18.02;;;18.10;99.90;;;;;;4350494;28;660128;-68
2022/08/14 00:13:01;;;;;;;28.83;19.10;;;18.10;99.90;;;;;;4343665;28;659740;-68
2022/08/14 00:15:49;;;;;;;28.10;19.77;;;18.10;99.90;;;;;;4370819;28;660753;-67
2022/08/14 00:18:36;;;;;;;24.67;18.73;;;18.10;99.90;;;;;;4350866;28;660120;-67
2022/08/14 00:21:23;;;;;;;24.10;18.00;;;18.10;99.90;;;;;;4371050;28;660696;-67
2022/08/14 00:24:11;;;;;;;25.53;18.23;;;18.10;99.90;;;;;;4356266;28;660159;-69
2022/08/14 00:26:59;;;;;;;29.40;18.50;;;18.10;99.90;;;;;;4364794;28;660610;-68
2022/08/14 00:29:46;;;;;;;26.90;19.70;;;18.10;99.90;;;;;;4360978;28;659653;-67
2022/08/14 00:32:33;;;;;;;27.43;18.80;;;18.00;99.90;;;;;;4372607;28;660814;-68
2022/08/14 00:35:20;;;;;;;27.63;18.63;;;18.10;99.90;;;;;;4354816;28;660413;-68
2022/08/14 00:38:07;;;;;;;29.42;19.88;;;18.00;99.90;;;;;;4372856;28;660828;-68
2022/08/14 00:40:56;;;;;;;23.70;17.10;;;18.00;99.90;;;;;;4357958;28;659618;-68
2022/08/14 00:43:44;;;;;;;28.10;17.23;;;18.00;99.90;;;;;;4350305;28;659760;-67
2022/08/14 00:46:31;;;;;;;24.80;18.07;;;18.00;99.90;;;;;;4355946;28;660177;-68
2022/08/14 00:49:18;;;;;;;25.98;17.83;;;17.90;99.90;;;;;;4365997;28;659060;-68
2022/08/14 00:52:05;;;;;;;26.30;17.70;;;18.00;99.90;;;;;;4354267;28;659998;-69
2022/08/14 00:54:53;;;;;;;27.13;17.73;;;17.90;99.90;;;;;;4368208;28;660893;-68
2022/08/14 00:57:41;;;;;;;31.00;18.93;;;17.90;99.90;;;;;;4358583;28;659666;-69
2022/08/14 01:00:29;;;;;;;26.80;17.47;;;17.90;99.90;;;;;;4376159;28;659924;-67
2022/08/14 01:03:16;;;;;;;25.03;18.37;;;17.90;99.90;;;;;;4354088;28;659898;-68
2022/08/14 01:06:03;;;;;;;27.17;18.83;;;17.80;99.90;;;;;;4363856;28;660865;-67
2022/08/14 01:08:50;;;;;;;25.67;18.73;;;17.70;99.90;;;;;;4350458;28;659698;-68
2022/08/14 01:11:38;;;;;;;28.07;19.27;;;17.70;99.90;;;;;;4384136;28;660987;-68
2022/08/14 01:14:26;;;;;;;26.48;17.15;;;17.70;99.90;;;;;;4352692;28;659846;-68
2022/08/14 01:17:14;;;;;;;26.97;19.50;;;17.70;99.90;;;;;;4365900;28;660920;-68
2022/08/14 01:23:09;;;;;;;28.63;19.13;;;17.60;99.90;;;;;;4329626;28;659620;-68
2022/08/14 01:25:57;;;;;;;29.93;19.63;;;17.50;99.90;;;;;;4352402;28;661901;-68
2022/08/14 01:28:44;;;;;;;27.90;19.63;;;17.50;99.90;;;;;;4356940;28;659547;-68
2022/08/14 01:31:34;;;;;;;31.63;20.73;;;17.50;99.90;;;;;;4350970;28;659743;-68
2022/08/14 01:34:24;;;;;;;29.23;20.53;;;17.50;99.90;;;;;;4356155;28;659869;-68
2022/08/14 01:37:12;;;;;;;29.93;19.70;;;17.50;99.90;;;;;;4345868;28;659696;-68
2022/08/14 01:40:02;;;;;;;34.53;19.83;;;17.60;99.90;;;;;;4376914;28;659875;-68
2022/08/14 01:42:49;;;;;;;29.17;19.83;;;17.60;99.90;;;;;;4345061;28;659339;-68
2022/08/14 01:45:36;;;;;;;32.60;19.90;;;17.60;99.90;;;;;;4344450;28;660290;-68
2022/08/14 01:48:24;;;;;;;36.27;21.50;;;17.60;99.90;;;;;;4372469;28;660875;-67
2022/08/14 01:51:12;;;;;;;29.70;20.60;;;17.60;99.90;;;;;;4356245;28;659430;-67
2022/08/14 01:54:00;;;;;;;32.87;21.00;;;17.60;99.90;;;;;;4377920;28;660143;-67
2022/08/14 01:56:50;;;;;;;31.93;21.13;;;17.70;99.90;;;;;;4348254;28;660183;-68
2022/08/14 01:59:39;;;;;;;32.30;21.47;;;17.70;99.90;;;;;;4358763;28;660119;-67
2022/08/14 02:02:26;;;;;;;31.43;20.30;;;17.70;99.90;;;;;;4354223;28;660018;-66
2022/08/14 02:05:14;;;;;;;33.10;22.03;;;17.70;99.90;;;;;;4368967;28;660174;-67
2022/08/14 02:08:01;;;;;;;33.07;21.10;;;17.70;99.90;;;;;;4350015;28;659921;-66
2022/08/14 02:11:15;;;;;;;29.20;20.80;;;17.70;99.90;;;;;;4373544;28;659887;-67
2022/08/14 02:13:59;;;;;;;37.50;22.23;;;17.70;99.90;;;;;;4313797;28;661177;-67
2022/08/14 02:16:51;;;;;;;35.83;21.40;;;17.70;99.90;;;;;;4356379;28;659582;-67
2022/08/14 02:19:38;;;;;;;34.17;19.60;;;17.70;99.90;;;;;;4341731;28;660720;-66
2022/08/14 02:22:26;;;;;;;34.30;19.50;;;17.70;99.90;;;;;;4353208;28;659547;-67
2022/08/14 02:25:13;;;;;;;27.23;17.17;;;17.70;99.90;;;;;;4370561;28;660277;-67
2022/08/14 02:28:00;;;;;;;22.63;16.43;;;17.80;99.90;;;;;;4357467;28;660536;-67
2022/08/14 02:30:49;;;;;;;22.13;16.65;;;17.90;99.90;;;;;;4381723;28;660781;-68
2022/08/14 02:33:36;;;;;;;21.20;15.40;;;17.90;99.90;;;;;;4348539;28;659413;-67
2022/08/14 02:36:24;;;;;;;27.03;15.53;;;17.80;99.90;;;;;;4373202;28;660312;-67
2022/08/14 02:39:11;;;;;;;20.30;14.47;;;17.80;99.90;;;;;;4353034;28;659976;-67
2022/08/14 02:41:58;;;;;;;18.00;14.13;;;17.80;99.90;;;;;;4370789;28;659868;-67
2022/08/14 02:44:45;;;;;;;24.23;15.07;;;17.90;99.90;;;;;;4362408;28;660179;-68
2022/08/14 02:47:34;;;;;;;21.90;14.67;;;17.80;99.90;;;;;;4369950;28;660372;-66
2022/08/14 02:50:21;;;;;;;20.50;14.63;;;17.80;99.90;;;;;;4356377;28;659808;-66
2022/08/14 02:53:08;;;;;;;19.97;13.63;;;17.80;99.90;;;;;;4370855;28;660810;-66
2022/08/14 02:55:57;;;;;;;19.30;12.57;;;17.90;99.90;;;;;;4338864;28;660196;-67
2022/08/14 02:58:46;;;;;;;16.13;12.33;;;17.90;99.90;;;;;;4355038;28;659636;-67
2022/08/14 03:01:34;;;;;;;16.07;12.60;;;17.80;99.90;;;;;;4337630;28;661123;-67
2022/08/14 03:04:25;;;;;;;17.97;13.27;;;17.80;99.90;;;;;;4339029;28;660064;-66
2022/08/14 03:07:15;;;;;;;17.87;12.90;;;17.90;99.90;;;;;;4335054;28;660771;-66
2022/08/14 03:10:02;;;;;;;19.30;13.90;;;17.90;99.90;;;;;;4331418;28;660257;-67
2022/08/14 03:12:50;;;;;;;22.10;14.27;;;17.80;99.90;;;;;;4381768;28;660202;-68
2022/08/14 03:15:38;;;;;;;19.17;13.83;;;17.70;99.90;;;;;;4372179;28;659062;-67
2022/08/14 03:18:26;;;;;;;26.03;14.33;;;17.80;99.90;;;;;;4354407;28;659927;-67
2022/08/14 03:21:19;;;;;;;22.17;14.80;;;17.80;99.90;;;;;;4372856;28;661276;-66
2022/08/14 03:24:12;;;;;;;22.73;15.23;;;17.80;99.90;;;;;;4349706;28;659983;-67
2022/08/14 03:26:59;;;;;;;23.87;16.40;;;17.80;99.90;;;;;;4358941;28;661020;-68
2022/08/14 03:29:47;;;;;;;22.43;15.87;;;17.80;99.90;;;;;;4349929;28;660419;-67
2022/08/14 03:32:34;;;;;;;26.47;16.83;;;17.80;99.90;;;;;;4363888;28;659291;-67
2022/08/14 03:35:21;;;;;;;26.57;16.27;;;17.80;99.90;;;;;;4351655;28;660145;-66
2022/08/14 03:38:11;;;;;;;27.13;17.00;;;17.90;99.90;;;;;;4370656;28;659550;-66
2022/08/14 03:40:58;;;;;;;29.97;18.27;;;17.80;99.90;;;;;;4351361;28;660363;-68
2022/08/14 03:43:45;;;;;;;30.63;18.63;;;17.90;99.90;;;;;;4357259;28;659749;-68
2022/08/14 03:46:33;;;;;;;32.73;18.77;;;17.80;99.90;;;;;;4371012;28;661416;-67
2022/08/14 03:49:23;;;;;;;32.03;20.13;;;17.80;99.90;;;;;;4347267;28;659512;-67
2022/08/14 03:52:11;;;;;;;32.50;19.40;;;17.80;99.90;;;;;;4349982;28;659822;-68
2022/08/14 03:55:02;;;;;;;36.03;20.93;;;17.70;99.90;;;;;;4371409;28;660896;-67
2022/08/14 03:57:49;;;;;;;32.27;19.63;;;17.80;99.90;;;;;;4361556;28;659864;-67
2022/08/14 04:00:37;;;;;;;32.73;19.67;;;17.70;99.90;;;;;;4365634;28;660587;-68
2022/08/14 04:03:25;;;;;;;31.20;19.53;;;17.70;99.90;;;;;;4370623;28;660207;-67
2022/08/14 04:06:12;;;;;;;31.87;18.73;;;17.70;99.90;;;;;;4357591;28;661987;-67
2022/08/14 04:08:59;;;;;;;29.43;18.50;;;17.70;99.90;;;;;;4379666;28;658676;-67
2022/08/14 04:11:47;;;;;;;34.17;19.03;;;17.70;99.90;;;;;;4364014;28;659823;-67
2022/08/14 04:14:35;;;;;;;33.93;19.60;;;17.70;99.90;;;;;;4369037;28;659455;-68
2022/08/14 04:17:22;;;;;;;34.80;20.47;;;17.70;99.90;;;;;;4382390;28;659545;-67
2022/08/14 04:20:11;;;;;;;32.83;20.30;;;17.70;99.90;;;;;;4370395;28;659513;-66
2022/08/14 04:22:58;;;;;;;35.67;19.60;;;17.70;99.90;;;;;;4345254;28;662678;-67
2022/08/14 04:25:46;;;;;;;32.57;20.20;;;17.70;99.90;;;;;;4353827;28;659957;-67
2022/08/14 04:28:35;;;;;;;29.67;19.00;;;17.80;99.90;;;;;;4379273;28;660507;-67
2022/08/14 04:31:23;;;;;;;32.17;19.80;;;17.80;99.90;;;;;;4355814;28;660049;-67
2022/08/14 04:34:10;;;;;;;29.77;19.10;;;17.80;99.90;;;;;;4359968;28;659663;-68
2022/08/14 04:46:14;;;;;;;36.60;21.20;;;17.80;99.90;;;;;;4332694;28;660900;-67
2022/08/14 04:49:01;;;;;;;35.87;21.00;;;17.80;99.90;;;;;;4353756;28;659770;-67
2022/08/14 04:51:49;;;;;;;39.37;22.70;;;17.80;99.90;;;;;;4378968;28;660139;-66
2022/08/14 04:54:36;;;;;;;35.00;21.67;;;17.90;99.90;;;;;;4351721;28;659479;-67
2022/08/14 04:57:23;;;;;;;37.13;21.63;;;17.90;99.90;;;;;;4384737;28;660976;-67
2022/08/14 05:00:11;;;;;;;38.63;22.50;;;18.00;99.90;;;;;;4356362;28;660233;-67
2022/08/14 05:03:02;;;;;;;37.80;20.90;;;18.00;99.90;;;;;;4374553;28;660460;-66
2022/08/14 05:05:49;;;;;;;37.37;19.83;;;18.10;99.90;;;;;;4354742;28;660320;-67
2022/08/14 05:08:36;;;;;;;36.40;20.47;;;18.00;99.90;;;;;;4355062;28;659694;-67
2022/08/14 05:11:23;;;;;;;34.17;20.10;;;18.10;99.90;;;;;;4378468;28;660407;-67
2022/08/14 05:14:11;;;;;;;32.57;18.87;;;18.20;99.90;;;;;;4353135;28;660240;-67
2022/08/14 05:16:58;;;;;;;26.40;16.67;;;18.10;99.90;;;;;;4381569;28;660691;-67
2022/08/14 05:19:46;;;;;;;26.40;16.97;;;18.10;99.90;;;;;;4357339;28;659880;-67
2022/08/14 05:22:33;;;;;;;25.83;16.47;;;18.20;99.90;;;;;;4365766;28;660106;-67
2022/08/14 05:25:21;;;;;;;26.50;15.90;;;18.10;99.90;;;;;;4348634;28;659661;-67
2022/08/14 05:28:09;;;;;;;23.98;15.63;;;18.20;99.90;;;;;;4374765;28;660239;-67
2022/08/14 05:30:57;;;;;;;22.10;13.57;;;18.30;99.90;;;;;;4352276;28;659391;-67
2022/08/14 05:33:45;;;;;;;24.20;14.57;;;18.40;99.90;;;;;;4373124;28;659865;-67
2022/08/14 05:36:33;;;;;;;23.27;14.67;;;18.40;99.90;;;;;;4355223;28;660082;-66
2022/08/14 05:39:21;;;;;;;23.70;14.17;;;18.40;99.90;;;;;;4352217;28;659574;-67
2022/08/14 05:42:08;;;;;;;18.60;13.17;;;18.50;99.90;;;;;;4373970;28;660075;-66
2022/08/14 05:44:55;;;;;;;17.53;12.27;;;18.60;99.90;;;;;;4361990;28;659862;-68
2022/08/14 05:47:42;;;;;;;18.40;12.52;;;18.50;99.90;;;;;;4375827;28;659809;-67
2022/08/14 05:50:29;;;;;;;15.17;11.33;;;18.50;99.90;;;;;;4375392;28;659552;-67
2022/08/14 05:53:18;;;;;;;14.60;10.57;;;18.60;99.90;;;;;;4352343;28;659866;-67
2022/08/14 05:56:06;;;;;;;17.23;11.17;;;18.30;99.90;;;;;;4358565;28;659440;-68
2022/08/14 05:58:53;;;;;;;18.08;10.63;;;18.30;99.90;;;;;;4382980;28;659767;-67
2022/08/14 06:01:40;;;;;;;12.40;9.50;;;18.30;99.90;;;;;;4363366;28;660099;-68
2022/08/14 06:04:28;;;;;;;13.17;9.10;;;18.40;99.90;;;;;;4386634;28;658098;-67
2022/08/14 06:07:15;;;;;;;11.70;9.07;;;18.50;99.90;;;;;;4371426;28;658306;-68
2022/08/14 06:10:04;;;;;;;13.70;8.50;;;18.50;99.90;;;;;;4388259;28;658942;-67
2022/08/14 06:12:51;;;;;;;13.13;8.37;;;18.50;99.90;;;;;;4354665;28;659134;-66
2022/08/14 06:15:38;;;;;;;12.15;7.80;;;18.40;99.90;;;;;;4380761;28;658980;-68
2022/08/14 06:18:25;;;;;;;11.10;8.00;;;18.30;99.90;;;;;;4359814;28;658861;-68
2022/08/14 06:21:14;;;;;;;12.80;7.43;;;18.30;99.90;;;;;;4447095;28;658351;-66
2022/08/14 06:24:01;;;;;;;16.37;7.47;;;18.30;99.90;;;;;;4353150;28;659170;-67
2022/08/14 06:26:50;;;;;;;6.60;5.33;;;18.30;99.90;;;;;;4370524;28;659328;-67
2022/08/14 06:29:37;;;;;;;7.50;5.57;;;18.50;99.90;;;;;;4350942;28;658804;-66
2022/08/14 06:32:24;;;;;;;8.17;6.00;;;18.50;99.90;;;;;;4363664;28;658201;-66
2022/08/14 06:35:13;;;;;;;7.00;5.60;;;18.60;99.90;;;;;;4356108;28;657536;-66
2022/08/14 06:38:00;;;;;;;7.43;5.53;;;18.70;99.90;;;;;;4353277;28;658182;-67
2022/08/14 06:40:48;;;;;;;8.23;5.50;;;18.80;99.90;;;;;;4375195;28;658554;-66
2022/08/14 06:43:36;;;;;;;5.13;4.57;;;18.90;99.90;;;;;;4347341;28;657515;-67
2022/08/14 06:46:23;;;;;;;6.27;4.57;;;18.90;99.90;;;;;;4376375;28;657831;-67
2022/08/14 06:49:11;;;;;;;6.07;4.83;;;19.00;99.90;;;;;;4355182;28;657409;-66
2022/08/14 06:51:59;;;;;;;5.93;5.10;;;18.90;99.90;;;;;;4379653;28;658218;-66
2022/08/14 06:54:46;;;;;;;8.87;5.63;;;18.90;99.90;;;;;;4353102;28;658205;-66
2022/08/14 06:57:37;;;;;;;8.03;6.07;;;18.70;99.90;;;;;;4368997;28;658314;-66
2022/08/14 07:00:27;;;;;;;9.97;6.40;;;18.70;99.90;;;;;;4355564;28;657801;-66
2022/08/14 07:06:19;;;;;;;7.13;5.33;;;18.60;99.90;;;;;;4350394;28;657905;-66
2022/08/14 07:09:06;;;;;;;8.63;5.70;;;18.70;99.90;;;;;;4345944;28;657357;-67
2022/08/14 07:11:53;;;;;;;6.10;5.50;;;18.70;99.90;;;;;;4367254;28;658697;-65
2022/08/14 07:14:40;;;;;;;6.13;4.63;;;18.60;99.90;;;;;;4365048;28;657726;-66
2022/08/14 07:17:29;;;;;;;6.67;4.57;;;18.70;99.90;;;;;;4377199;28;658277;-66
2022/08/14 07:20:19;;;;;;;6.13;4.67;;;18.80;99.90;;;;;;4358774;28;657624;-66
2022/08/14 07:23:07;;;;;;;4.60;3.97;;;19.00;99.90;;;;;;4354703;28;657574;-66
2022/08/14 07:25:55;;;;;;;4.67;3.17;;;19.20;99.90;;;;;;4378486;28;657573;-66
2022/08/14 07:28:43;;;;;;;4.23;3.43;;;19.30;99.90;;;;;;4355025;28;658882;-66
2022/08/14 07:31:30;;;;;;;3.63;3.33;;;19.40;99.90;;;;;;4359907;28;657568;-67
2022/08/14 07:34:18;;;;;;;4.90;3.23;;;19.30;99.90;;;;;;4383946;28;657289;-66
2022/08/14 07:37:06;;;;;;;2.60;2.40;;;19.30;99.90;;;;;;4364433;28;658028;-66
2022/08/14 07:39:53;;;;;;;4.20;3.13;;;19.40;99.90;;;;;;4383048;28;657645;-66
2022/08/14 07:42:41;;;;;;;3.13;2.80;;;19.50;99.90;;;;;;4366759;28;657523;-68
2022/08/14 07:45:28;;;;;;;5.23;3.00;;;19.50;99.90;;;;;;4375195;28;658401;-66
2022/08/14 07:48:15;;;;;;;3.13;2.80;;;19.60;99.90;;;;;;4366594;28;657722;-67
2022/08/14 07:51:04;;;;;;;3.20;2.90;;;19.80;99.90;;;;;;4383403;28;657286;-66
2022/08/14 07:53:51;;;;;;;4.10;3.20;;;19.80;99.90;;;;;;4353033;28;657843;-66
2022/08/14 07:56:38;;;;;;;3.90;3.30;;;19.80;99.90;;;;;;4384812;28;658567;-66
2022/08/14 07:59:26;;;;;;;2.90;2.53;;;19.90;99.90;;;;;;4361815;28;657936;-67
2022/08/14 08:02:14;;;;;;;3.40;3.10;;;19.70;99.90;;;;;;4379985;28;658278;-66
2022/08/14 08:05:01;;;;;;;3.40;2.57;;;19.80;99.90;;;;;;4355765;28;658211;-67
2022/08/14 08:07:50;;;;;;;5.07;2.37;;;19.90;99.90;;;;;;4380949;28;658266;-66
2022/08/14 08:10:40;;;;;;;2.73;2.53;;;19.90;99.90;;;;;;4360037;28;658394;-66
2022/08/14 08:13:27;;;;;;;2.50;2.07;;;19.90;99.90;;;;;;4358422;28;658329;-66
2022/08/14 08:16:14;;;;;;;2.30;2.10;;;20.00;99.90;;;;;;4379900;28;657567;-67
2022/08/14 08:19:01;;;;;;;3.77;2.20;;;20.10;99.90;;;;;;4357045;28;658091;-66
2022/08/14 08:21:48;;;;;;;4.03;2.50;;;20.20;99.90;;;;;;4379394;28;658361;-66
2022/08/14 08:24:37;;;;;;;2.83;2.63;;;20.50;99.90;;;;;;4363507;28;657836;-67
2022/08/14 08:27:24;;;;;;;2.20;2.00;;;20.70;99.90;;;;;;4353179;28;658211;-67
2022/08/14 08:30:12;;;;;;;2.33;2.13;;;20.70;99.90;;;;;;4349127;28;657887;-67
2022/08/14 08:33:01;;;;;;;2.10;1.90;;;21.30;99.90;;;;;;4368158;28;657682;-67
2022/08/14 08:35:48;;;;;;;3.53;2.30;;;21.40;99.90;;;;;;4369565;28;658157;-66
2022/08/14 08:38:36;;;;;;;2.07;1.87;;;21.30;99.90;;;;;;4338111;28;657727;-66
2022/08/14 08:41:25;;;;;;;4.67;2.00;;;21.30;99.90;;;;;;4372597;28;659092;-66
2022/08/14 08:44:12;;;;;;;1.80;1.70;;;21.40;99.90;;;;;;4346067;28;658361;-67
2022/08/14 08:47:03;;;;;;;1.97;1.80;;;21.50;99.90;;;;;;4365717;28;657953;-67
2022/08/14 08:49:52;;;;;;;1.90;1.80;;;21.70;99.90;;;;;;4352310;28;657791;-67
2022/08/14 08:52:48;;;;;;;2.20;2.00;;;21.70;99.90;;;;;;4374806;28;657512;-68
2022/08/14 08:55:37;;;;;;;2.77;1.90;;;22.10;99.90;;;;;;4341040;28;658265;-67
2022/08/14 08:58:26;;;;;;;2.37;1.97;;;22.60;99.90;;;;;;4377687;28;657608;-66
2022/08/14 09:01:13;;;;;;;2.30;1.77;;;22.90;99.90;;;;;;4345826;28;658596;-67
2022/08/14 09:04:04;;;;;;;2.60;2.40;;;23.10;99.90;;;;;;4358373;28;658309;-67
2022/08/14 09:06:51;;;;;;;2.40;2.20;;;23.60;99.90;;;;;;4355137;28;658151;-67
2022/08/14 09:09:50;;;;;;;2.83;2.50;;;23.70;99.90;;;;;;4375494;28;656997;-66
2022/08/14 09:12:38;;;;;;;3.20;2.72;;;23.90;99.90;;;;;;4332341;28;658900;-67
2022/08/14 09:15:27;;;;;;;3.40;2.40;;;24.00;99.90;;;;;;4345476;28;657564;-67
2022/08/14 09:18:15;;;;;;;3.90;2.88;;;24.10;99.90;;;;;;4367142;28;658087;-66
2022/08/14 09:21:02;;;;;;;3.97;3.20;;;24.40;99.90;;;;;;4351732;28;658153;-67
2022/08/14 09:23:49;;;;;;;3.55;3.25;;;24.70;99.90;;;;;;4364794;28;657327;-66
2022/08/14 09:26:38;;;;;;;4.00;3.33;;;25.00;99.90;;;;;;4336252;28;657806;-66
2022/08/14 09:29:25;;;;;;;4.22;3.60;;;25.00;99.90;;;;;;4349101;28;657998;-67
2022/08/14 09:32:16;;;;;;;5.38;4.00;;;24.90;99.90;;;;;;4367302;28;657572;-66
2022/08/14 09:35:07;;;;;;;5.28;4.03;;;24.70;99.90;;;;;;4343350;28;657698;-66
2022/08/14 09:37:58;;;;;;;4.80;3.90;;;24.60;99.90;;;;;;4349192;28;658226;-67
2022/08/14 09:40:59;;;;;;;3.60;3.30;;;24.70;99.90;;;;;;4333924;28;658311;-67
2022/08/14 09:43:51;;;;;;;4.65;3.67;;;24.80;99.90;;;;;;4323361;28;658308;-66
2022/08/14 09:46:39;;;;;;;5.43;3.70;;;24.50;99.90;;;;;;4346037;28;657787;-66
2022/08/14 09:49:33;;;;;;;4.63;3.72;;;24.30;99.90;;;;;;4358084;28;657174;-67
2022/08/14 09:52:21;;;;;;;5.40;4.00;;;24.00;99.90;;;;;;4334307;28;659280;-67
2022/08/14 09:55:17;;;;;;;6.57;4.35;;;24.00;99.90;;;;;;4358415;28;659044;-66
2022/08/14 09:58:08;;;;;;;5.75;3.95;;;23.90;99.90;;;;;;4351097;28;658143;-66
2022/08/14 10:01:00;;;;;;;5.32;4.30;;;23.80;99.90;;;;;;4321557;28;658870;-67
2022/08/14 10:03:49;;;;;;;6.65;4.35;;;23.90;99.90;;;;;;4348382;28;657755;-66
2022/08/14 10:06:43;;;;;;;10.60;4.68;;;24.30;99.90;;;;;;4352570;28;657893;-66
2022/08/14 10:09:31;;;;;;;6.05;4.28;;;24.40;99.90;;;;;;4323158;28;659162;-66
2022/08/14 10:12:18;;;;;;;7.00;4.07;;;24.30;99.90;;;;;;4373117;28;658715;-66
2022/08/14 10:15:17;;;;;;;5.85;3.92;;;24.40;99.90;;;;;;4363078;28;657323;-67
2022/08/14 10:18:08;;;;;;;5.95;4.80;;;24.50;99.90;;;;;;4341872;28;657589;-65
2022/08/14 10:20:57;;;;;;;5.53;4.38;;;23.60;99.90;;;;;;4338576;28;657576;-66
2022/08/14 10:23:48;;;;;;;5.97;4.50;;;24.00;99.90;;;;;;4371533;28;657797;-65
2022/08/14 10:26:35;;;;;;;6.70;4.90;;;24.10;99.90;;;;;;4336249;28;657617;-65
2022/08/14 10:29:31;;;;;;;6.35;4.97;;;24.60;99.90;;;;;;4359735;28;658631;-66
2022/08/14 10:32:20;;;;;;;5.63;4.88;;;24.90;99.90;;;;;;4343978;28;657830;-64
2022/08/14 10:35:09;;;;;;;7.45;4.80;;;25.30;99.90;;;;;;4340240;28;657984;-64
2022/08/14 10:37:59;;;;;;;7.15;5.55;;;25.30;99.90;;;;;;4356991;28;657874;-65
2022/08/14 10:40:48;;;;;;;7.10;5.20;;;24.80;99.90;;;;;;4351476;28;657927;-64
2022/08/14 10:43:35;;;;;;;8.02;5.05;;;24.30;99.90;;;;;;4349048;28;658324;-65
2022/08/14 10:46:23;;;;;;;9.50;5.07;;;23.20;99.90;;;;;;4371115;28;658321;-64
2022/08/14 10:49:18;;;;;;;6.25;5.50;;;23.40;99.90;;;;;;4367213;28;657982;-66
2022/08/14 10:52:07;;;;;;;9.32;6.20;;;23.60;99.90;;;;;;4340427;28;657776;-65
2022/08/14 10:55:07;;;;;;;7.40;5.55;;;24.30;99.90;;;;;;4357411;28;657700;-65
2022/08/14 10:57:57;;;;;;;7.70;5.90;;;25.00;99.90;;;;;;4327051;28;657819;-67
2022/08/14 11:00:55;;;;;;;8.75;5.53;;;25.40;99.90;;;;;;4366863;28;657480;-66
2022/08/14 11:03:42;;;;;;;9.35;6.05;;;26.40;99.90;;;;;;4353692;28;657907;-65
2022/08/14 11:06:32;;;;;;;8.90;6.20;;;26.10;99.90;;;;;;4361783;28;657919;-66
2022/08/14 11:09:19;;;;;;;9.00;5.85;;;26.40;99.90;;;;;;4360708;28;657307;-65
2022/08/14 11:12:06;;;;;;;9.25;5.88;;;26.40;99.90;;;;;;4342894;28;657832;-65
2022/08/14 11:14:58;;;;;;;7.78;5.72;;;25.80;99.90;;;;;;4361963;28;657740;-65
2022/08/14 11:17:46;;;;;;;8.80;5.97;;;25.70;99.90;;;;;;4330822;28;657519;-66
2022/08/14 11:20:33;;;;;;;7.03;5.85;;;25.40;99.90;;;;;;4367065;28;658760;-65
2022/08/14 11:23:21;;;;;;;8.48;6.72;;;25.30;99.90;;;;;;4350716;28;657972;-66
2022/08/14 11:26:09;;;;;;;7.70;5.90;;;24.90;99.90;;;;;;4347914;28;657947;-65
2022/08/14 11:28:56;;;;;;;7.93;6.40;;;25.00;99.90;;;;;;4351122;28;658052;-65
2022/08/14 11:31:45;;;;;;;8.55;6.55;;;25.10;99.90;;;;;;4365262;28;658749;-65
2022/08/14 11:34:35;;;;;;;11.98;6.70;;;25.20;99.90;;;;;;4339827;28;658025;-65
2022/08/14 11:37:23;;;;;;;9.45;6.28;;;25.40;99.90;;;;;;4348649;28;659444;-65
2022/08/14 11:40:15;;;;;;;8.30;7.05;;;25.40;99.90;;;;;;4354861;28;657480;-66
2022/08/14 11:43:04;;;;;;;8.35;6.32;;;25.80;99.90;;;;;;4343218;28;658246;-65
2022/08/14 11:45:51;;;;;;;8.38;6.10;;;26.10;99.90;;;;;;4340911;28;657693;-65
2022/08/14 11:48:46;;;;;;;9.27;6.50;;;26.20;99.90;;;;;;4357171;28;658002;-65
2022/08/14 11:51:35;;;;;;;11.38;7.05;;;26.00;99.90;;;;;;4335695;28;657734;-65
2022/08/14 11:54:22;;;;;;;7.97;6.20;;;26.10;99.90;;;;;;4338336;28;659844;-65
2022/08/14 11:57:15;;;;;;;9.88;6.82;;;26.60;99.90;;;;;;4361678;28;658368;-65
2022/08/14 12:00:04;;;;;;;8.30;6.43;;;27.10;99.90;;;;;;4316323;28;657753;-65
2022/08/14 12:02:52;;;;;;;9.85;6.63;;;27.20;99.90;;;;;;4354352;28;657641;-65
2022/08/14 12:05:41;;;;;;;7.38;5.70;;;27.70;99.90;;;;;;4374885;28;657701;-65
2022/08/14 12:08:33;;;;;;;10.15;6.18;;;28.10;99.90;;;;;;4335760;28;658141;-66
2022/08/14 12:11:20;;;;;;;8.30;6.10;;;27.80;99.90;;;;;;4325338;28;658531;-66
2022/08/14 12:14:08;;;;;;;8.88;5.85;;;27.90;99.90;;;;;;4372119;28;658523;-65
2022/08/14 12:16:59;;;;;;;7.75;5.03;;;28.20;99.90;;;;;;4349419;28;657365;-65
2022/08/14 12:19:48;;;;;;;6.88;5.60;;;28.90;99.90;;;;;;4345752;28;657831;-65
2022/08/14 12:22:37;;;;;;;7.63;5.80;;;29.10;99.90;;;;;;4349428;28;657569;-65
2022/08/14 12:25:25;;;;;;;9.02;6.40;;;28.80;99.90;;;;;;4363577;28;657384;-66
2022/08/14 12:28:14;;;;;;;8.13;6.32;;;28.60;99.90;;;;;;4374067;28;658492;-65
2022/08/14 12:31:11;;;;;;;7.63;5.47;;;28.00;99.90;;;;;;4345317;28;657569;-65
2022/08/14 12:33:58;;;;;;;7.43;5.80;;;28.00;99.90;;;;;;4335347;28;657848;-65
2022/08/14 12:36:46;;;;;;;6.40;4.93;;;28.00;99.90;;;;;;4346317;28;658353;-65
2022/08/14 12:39:34;;;;;;;8.20;5.53;;;28.50;99.90;;;;;;4379897;28;658566;-65
2022/08/14 12:42:22;;;;;;;9.15;5.03;;;29.00;99.90;;;;;;4351876;28;657444;-65
2022/08/14 12:45:12;;;;;;;5.50;4.70;;;29.70;99.90;;;;;;4363843;28;657979;-66
2022/08/14 12:48:02;;;;;;;6.65;4.70;;;29.80;97.30;;;;;;4371200;28;658596;-65
2022/08/14 12:50:50;;;;;;;6.87;4.53;;;30.00;99.30;;;;;;4351230;28;657792;-65
2022/08/14 12:53:38;;;;;;;5.82;5.00;;;30.40;96.30;;;;;;4341149;28;658207;-64
2022/08/14 12:56:27;;;;;;;4.70;3.88;;;30.70;94.20;;;;;;4371875;28;657725;-65
2022/08/14 12:59:14;;;;;;;5.28;4.00;;;30.50;93.60;;;;;;4387168;28;658718;-64
2022/08/14 13:02:02;;;;;;;5.45;4.20;;;30.00;95.30;;;;;;4359237;28;658210;-65
2022/08/14 13:04:49;;;;;;;4.68;3.50;;;29.70;95.00;;;;;;4387415;28;657989;-65
2022/08/14 13:07:39;;;;;;;3.70;3.30;;;30.40;94.00;;;;;;4359372;28;658011;-65
2022/08/14 13:10:26;;;;;;;5.38;3.80;;;30.40;92.20;;;;;;4360479;28;657673;-65
2022/08/14 13:13:15;;;;;;;4.13;3.38;;;30.60;93.20;;;;;;4385913;28;657965;-64
2022/08/14 13:16:04;;;;;;;3.40;3.10;;;31.20;92.10;;;;;;4362160;28;658586;-64
2022/08/14 13:18:51;;;;;;;3.87;3.07;;;31.20;90.80;;;;;;4358057;28;658997;-65
2022/08/14 13:21:39;;;;;;;3.45;3.00;;;31.20;91.20;;;;;;4380674;28;657818;-65
2022/08/14 13:24:26;;;;;;;3.47;3.17;;;31.10;86.70;;;;;;4358142;28;658549;-64
2022/08/14 13:27:13;;;;;;;4.30;2.92;;;31.00;87.70;;;;;;4379962;28;658156;-64
2022/08/14 13:30:02;;;;;;;3.03;2.72;;;30.20;84.60;;;;;;4369299;28;657798;-65
2022/08/14 13:32:49;;;;;;;2.70;2.50;;;29.70;89.10;;;;;;4381366;28;658521;-64
2022/08/14 13:35:37;;;;;;;4.40;2.65;;;29.50;90.20;;;;;;4366823;28;658357;-64
2022/08/14 13:38:24;;;;;;;5.25;2.72;;;29.50;90.10;;;;;;4375652;28;657831;-65
2022/08/14 13:41:11;;;;;;;4.10;3.30;;;30.50;90.40;;;;;;4355340;28;657862;-64
2022/08/14 13:43:58;;;;;;;4.68;3.33;;;31.70;86.90;;;;;;4377497;28;658756;-64
2022/08/14 13:46:47;;;;;;;3.33;3.03;;;31.60;87.10;;;;;;4368999;28;657697;-65
2022/08/14 13:49:36;;;;;;;10.05;3.22;;;30.70;87.20;;;;;;4383228;28;657563;-65
2022/08/14 13:52:23;;;;;;;4.50;3.22;;;29.90;89.30;;;;;;4354402;28;659512;-64
2022/08/14 13:55:11;;;;;;;3.30;3.00;;;29.20;90.90;;;;;;4341247;28;657532;-66
2022/08/14 13:58:00;;;;;;;5.15;3.70;;;28.80;93.40;;;;;;4373506;28;658322;-65
2022/08/14 14:00:48;;;;;;;6.30;4.38;;;28.60;94.40;;;;;;4350594;28;659617;-65
2022/08/14 14:03:38;;;;;;;3.75;3.25;;;28.60;96.00;;;;;;4350926;28;657576;-65
2022/08/14 14:06:25;;;;;;;5.63;3.08;;;28.40;96.20;;;;;;4355091;28;657429;-65
2022/08/14 14:09:13;;;;;;;3.10;2.80;;;28.40;99.90;;;;;;4360330;28;658496;-64
2022/08/14 14:12:00;;;;;;;3.80;2.65;;;28.90;96.20;;;;;;4339600;28;658622;-65
2022/08/14 14:14:47;;;;;;;4.22;2.92;;;28.90;95.60;;;;;;4365076;28;659972;-64
2022/08/14 14:17:35;;;;;;;6.20;2.95;;;28.60;95.40;;;;;;4369905;28;657822;-64
2022/08/14 14:20:24;;;;;;;5.10;2.67;;;28.90;99.20;;;;;;4330843;28;658168;-65
2022/08/14 14:23:13;;;;;;;21.45;4.40;;;29.80;95.70;;;;;;4346714;28;657476;-65
2022/08/14 14:26:00;;;;;;;3.42;2.38;;;30.30;92.20;;;;;;4352202;28;659483;-65
2022/08/14 14:28:49;;;;;;;3.33;2.08;;;29.90;91.80;;;;;;4377078;28;659006;-65
2022/08/14 14:31:36;;;;;;;2.20;2.00;;;29.50;90.80;;;;;;4339260;28;657478;-65